Time;durP1;ratioP1;P1;durP2;ratioP2;P2;SDS_P1;SDS_P2;PMS_P1;PMS_P2;Temp;Humidity;BMP_temperature;BMP_pressure;BME280_temperature;BME280_humidity;BME280_pressure;Samples;Min_cycle;Max_cycle;Signal;HPM_P1;HPM_P2
2021/06/03 00:00:30;;;;;;;4.10;3.70;;;20.20;99.90;;;;;;5009290;28;20452;-68
2021/06/03 00:02:56;;;;;;;3.70;2.83;;;20.10;99.90;;;;;;5011784;28;20177;-68
2021/06/03 00:05:25;;;;;;;4.00;3.07;;;20.10;99.90;;;;;;5011336;28;20978;-68
2021/06/03 00:07:51;;;;;;;4.30;3.97;;;20.00;99.90;;;;;;5009506;28;20472;-68
2021/06/03 00:10:19;;;;;;;3.70;3.40;;;20.00;99.90;;;;;;5010537;28;20470;-68
2021/06/03 00:12:44;;;;;;;5.43;4.27;;;20.00;99.90;;;;;;5002203;28;20531;-68
2021/06/03 00:15:14;;;;;;;3.67;3.30;;;19.90;99.90;;;;;;5011512;28;20505;-68
2021/06/03 00:17:40;;;;;;;4.20;3.60;;;19.90;99.90;;;;;;5008927;28;20273;-68
2021/06/03 00:20:12;;;;;;;4.00;2.63;;;19.90;99.90;;;;;;5010080;28;20966;-68
2021/06/03 00:22:38;;;;;;;3.00;2.80;;;19.90;99.90;;;;;;5010664;28;20431;-68
2021/06/03 00:25:04;;;;;;;4.23;3.57;;;19.90;99.90;;;;;;5012770;28;20493;-68
2021/06/03 00:27:30;;;;;;;4.23;3.33;;;19.90;99.90;;;;;;5007195;28;20204;-68
2021/06/03 00:29:55;;;;;;;3.33;2.77;;;19.90;99.90;;;;;;5008706;28;20455;-68
2021/06/03 00:32:21;;;;;;;3.17;2.90;;;19.90;99.90;;;;;;5009266;28;20594;-68
2021/06/03 00:34:47;;;;;;;3.10;2.80;;;19.90;99.90;;;;;;5025635;28;20571;-68
2021/06/03 00:37:12;;;;;;;6.70;3.70;;;19.90;99.90;;;;;;5009923;28;20232;-68
2021/06/03 00:39:38;;;;;;;3.93;3.30;;;19.90;99.90;;;;;;5010203;28;20255;-68
2021/06/03 00:42:04;;;;;;;3.23;2.93;;;19.80;99.90;;;;;;5006173;28;20179;-68
2021/06/03 00:44:29;;;;;;;3.60;3.30;;;19.80;99.90;;;;;;5011035;28;20187;-68
2021/06/03 00:46:55;;;;;;;2.80;2.60;;;19.70;99.90;;;;;;5010376;28;20492;-68
2021/06/03 00:49:20;;;;;;;3.03;2.73;;;19.70;99.90;;;;;;5007106;28;20208;-68
2021/06/03 00:51:46;;;;;;;3.27;2.97;;;19.60;99.90;;;;;;5010897;28;20177;-68
2021/06/03 00:54:12;;;;;;;3.63;3.30;;;19.60;99.90;;;;;;5002386;28;20542;-68
2021/06/03 00:56:37;;;;;;;5.10;3.60;;;19.50;99.90;;;;;;5002443;28;20195;-68
2021/06/03 00:59:04;;;;;;;4.80;3.23;;;19.50;99.90;;;;;;5005886;28;20274;-68
2021/06/03 01:01:30;;;;;;;4.37;3.60;;;19.50;99.90;;;;;;5010918;28;20279;-68
2021/06/03 01:03:59;;;;;;;5.10;3.60;;;19.40;99.90;;;;;;5010376;28;20915;-68
2021/06/03 01:06:24;;;;;;;5.30;4.37;;;19.40;99.90;;;;;;5006894;28;20445;-68
2021/06/03 01:08:58;;;;;;;6.13;3.80;;;19.30;99.90;;;;;;5009750;28;20462;-68
2021/06/03 01:11:43;;;;;;;4.00;3.60;;;19.30;99.90;;;;;;5007518;28;20178;-68
2021/06/03 01:14:26;;;;;;;3.90;3.60;;;19.30;99.90;;;;;;5008254;28;20430;-68
2021/06/03 01:16:55;;;;;;;5.00;3.37;;;19.30;99.90;;;;;;5010982;28;20973;-68
2021/06/03 01:19:36;;;;;;;3.40;3.10;;;19.20;99.90;;;;;;5008917;28;20439;-68
2021/06/03 01:22:14;;;;;;;4.10;3.77;;;19.20;99.90;;;;;;5009557;28;20428;-68
2021/06/03 01:24:43;;;;;;;4.40;4.00;;;19.10;99.90;;;;;;5009229;28;20441;-68
2021/06/03 01:27:12;;;;;;;3.80;3.50;;;19.10;99.90;;;;;;5003197;28;20797;-68
2021/06/03 01:30:06;;;;;;;3.80;3.50;;;19.10;99.90;;;;;;5000406;28;20439;-68
2021/06/03 01:32:33;;;;;;;3.50;3.07;;;19.10;99.90;;;;;;5006574;28;20788;-68
2021/06/03 01:34:59;;;;;;;3.10;2.80;;;19.00;99.90;;;;;;5010959;28;20451;-68
2021/06/03 01:37:25;;;;;;;3.40;2.80;;;19.00;99.90;;;;;;5008054;28;20480;-68
2021/06/03 01:39:52;;;;;;;3.73;3.20;;;19.00;99.90;;;;;;5000967;28;20190;-68
2021/06/03 01:42:18;;;;;;;3.50;3.20;;;19.00;99.90;;;;;;5006124;28;20980;-68
2021/06/03 01:44:45;;;;;;;3.40;3.10;;;19.00;99.90;;;;;;5007510;28;20433;-68
2021/06/03 01:47:12;;;;;;;5.33;3.90;;;18.90;99.90;;;;;;5008816;28;20439;-68
2021/06/03 01:49:39;;;;;;;6.80;3.83;;;18.90;99.90;;;;;;5001328;28;20519;-68
2021/06/03 01:52:06;;;;;;;4.90;3.70;;;18.90;99.90;;;;;;5008974;28;20421;-68
2021/06/03 01:54:33;;;;;;;4.47;4.10;;;18.90;99.90;;;;;;5008535;28;20560;-68
2021/06/03 01:56:59;;;;;;;3.83;3.53;;;18.90;99.90;;;;;;5005215;28;20436;-68
2021/06/03 01:59:25;;;;;;;5.00;4.07;;;18.80;99.90;;;;;;4997644;28;20495;-68
2021/06/03 02:01:51;;;;;;;3.50;3.20;;;18.80;99.90;;;;;;5002433;28;20464;-68
2021/06/03 02:04:17;;;;;;;3.50;3.20;;;18.70;99.90;;;;;;5008944;28;20189;-68
2021/06/03 02:06:43;;;;;;;4.23;3.93;;;18.70;99.90;;;;;;5008976;28;20444;-68
2021/06/03 02:09:11;;;;;;;3.87;3.30;;;18.70;99.90;;;;;;5007548;28;20460;-68
2021/06/03 02:11:46;;;;;;;6.33;4.00;;;18.70;99.90;;;;;;5005975;28;20436;-68
2021/06/03 02:14:14;;;;;;;4.83;3.70;;;18.60;99.90;;;;;;5007256;28;20439;-68
2021/06/03 02:16:53;;;;;;;3.97;3.20;;;18.60;99.90;;;;;;5008083;28;20438;-68
2021/06/03 02:19:25;;;;;;;3.00;2.70;;;18.60;99.90;;;;;;5008311;28;20698;-68
2021/06/03 02:21:53;;;;;;;6.10;3.47;;;18.60;99.90;;;;;;5009281;28;20832;-68
2021/06/03 02:24:21;;;;;;;4.10;3.70;;;18.60;99.90;;;;;;5008012;28;20432;-68
2021/06/03 02:26:48;;;;;;;3.80;3.50;;;18.60;99.90;;;;;;5004858;28;20431;-68
2021/06/03 02:29:15;;;;;;;4.50;4.10;;;18.50;99.90;;;;;;5006489;28;20460;-68
2021/06/03 02:31:41;;;;;;;5.37;3.93;;;18.50;99.90;;;;;;5009097;28;20448;-68
2021/06/03 02:34:07;;;;;;;4.10;3.70;;;18.40;99.90;;;;;;5005359;28;20515;-68
2021/06/03 02:36:33;;;;;;;3.80;3.50;;;18.40;99.90;;;;;;5009787;28;20483;-68
2021/06/03 02:39:00;;;;;;;3.90;3.50;;;18.40;99.90;;;;;;5023405;28;20933;-68
2021/06/03 02:41:25;;;;;;;3.63;3.33;;;18.40;99.90;;;;;;5004981;28;20304;-68
2021/06/03 02:43:51;;;;;;;5.03;4.53;;;18.40;99.90;;;;;;5004045;28;20551;-68
2021/06/03 02:46:18;;;;;;;4.70;3.70;;;18.40;99.90;;;;;;5009377;28;20189;-68
2021/06/03 02:48:44;;;;;;;6.10;3.60;;;18.30;99.90;;;;;;5005714;28;20513;-68
2021/06/03 02:51:10;;;;;;;3.60;3.30;;;18.30;99.90;;;;;;5006148;28;20443;-68
2021/06/03 02:53:36;;;;;;;3.90;3.40;;;18.30;99.90;;;;;;5001025;28;20519;-68
2021/06/03 02:56:02;;;;;;;3.20;2.87;;;18.30;99.90;;;;;;5007043;28;20431;-68
2021/06/03 02:58:28;;;;;;;3.50;3.20;;;18.20;99.90;;;;;;5007715;28;20460;-68
2021/06/03 03:00:53;;;;;;;3.80;2.90;;;18.30;99.90;;;;;;5006200;28;20240;-68
2021/06/03 03:03:19;;;;;;;3.43;3.13;;;18.30;99.90;;;;;;4989660;28;20182;-68
2021/06/03 03:05:45;;;;;;;2.80;2.53;;;18.30;99.90;;;;;;4998698;28;20185;-68
2021/06/03 03:08:11;;;;;;;3.33;2.97;;;18.30;99.90;;;;;;5007176;28;20201;-68
2021/06/03 03:10:44;;;;;;;3.23;2.67;;;18.40;99.90;;;;;;5007556;28;20191;-68
2021/06/03 03:13:10;;;;;;;3.70;3.23;;;18.30;99.90;;;;;;5003437;28;20486;-68
2021/06/03 03:15:37;;;;;;;3.07;2.50;;;18.40;99.90;;;;;;5008364;28;20898;-68
2021/06/03 03:18:04;;;;;;;2.57;2.37;;;18.40;99.90;;;;;;5003423;28;20432;-68
2021/06/03 03:20:30;;;;;;;3.20;2.77;;;18.40;99.90;;;;;;5007165;28;20436;-68
2021/06/03 03:22:56;;;;;;;4.37;2.70;;;18.30;99.90;;;;;;5007283;28;21002;-68
2021/06/03 03:25:24;;;;;;;2.90;2.70;;;18.40;99.90;;;;;;5007928;28;20432;-68
2021/06/03 03:27:50;;;;;;;3.20;2.97;;;18.40;99.90;;;;;;5003005;28;20464;-68
2021/06/03 03:30:17;;;;;;;4.23;2.83;;;18.40;99.90;;;;;;5006815;28;20458;-68
2021/06/03 03:32:43;;;;;;;4.23;3.10;;;18.30;99.90;;;;;;5001993;28;20434;-68
2021/06/03 03:35:10;;;;;;;3.67;3.30;;;18.30;99.90;;;;;;5009015;28;20440;-68
2021/06/03 03:37:40;;;;;;;3.20;2.90;;;18.30;99.90;;;;;;5006938;28;21078;-68
2021/06/03 03:40:08;;;;;;;4.50;3.03;;;18.40;99.90;;;;;;5005493;28;20478;-68
2021/06/03 03:42:34;;;;;;;3.90;3.13;;;18.30;99.90;;;;;;5005267;28;21071;-68
2021/06/03 03:45:00;;;;;;;4.33;3.07;;;18.30;99.90;;;;;;5008713;28;20444;-68
2021/06/03 03:47:26;;;;;;;3.20;2.90;;;18.30;99.90;;;;;;5000750;28;20476;-68
2021/06/03 03:49:51;;;;;;;2.80;2.50;;;18.30;99.90;;;;;;5004090;28;20228;-68
2021/06/03 03:52:17;;;;;;;3.20;3.00;;;18.30;99.90;;;;;;5006381;28;20701;-68
2021/06/03 03:54:43;;;;;;;4.23;3.00;;;18.30;99.90;;;;;;5009280;28;20221;-68
2021/06/03 03:57:08;;;;;;;2.63;2.43;;;18.30;99.90;;;;;;5007892;28;20185;-68
2021/06/03 03:59:36;;;;;;;4.07;2.57;;;18.30;99.90;;;;;;5006812;28;20320;-68
2021/06/03 04:02:02;;;;;;;4.00;3.10;;;18.30;99.90;;;;;;5006079;28;20443;-68
2021/06/03 04:04:28;;;;;;;3.70;2.40;;;18.30;99.90;;;;;;5000138;28;20538;-68
2021/06/03 04:06:55;;;;;;;3.17;2.57;;;18.30;99.90;;;;;;5007832;28;20471;-68
2021/06/03 04:09:21;;;;;;;3.10;2.70;;;18.40;99.90;;;;;;5006858;28;20212;-68
2021/06/03 04:11:47;;;;;;;4.00;2.83;;;18.40;99.90;;;;;;5004470;28;22455;-68
2021/06/03 04:14:12;;;;;;;2.77;2.57;;;18.40;99.90;;;;;;5004104;28;21202;-68
2021/06/03 04:16:38;;;;;;;3.00;2.53;;;18.40;99.90;;;;;;4996847;28;20177;-68
2021/06/03 04:19:04;;;;;;;2.97;2.60;;;18.50;99.90;;;;;;5006216;28;20192;-68
2021/06/03 04:21:29;;;;;;;2.80;2.10;;;18.50;99.90;;;;;;5006196;28;20709;-68
2021/06/03 04:23:55;;;;;;;3.20;2.17;;;18.50;99.90;;;;;;5006405;28;20185;-68
2021/06/03 04:26:20;;;;;;;2.40;2.20;;;18.60;99.90;;;;;;5007805;28;20180;-68
2021/06/03 04:28:46;;;;;;;2.70;2.50;;;18.60;99.90;;;;;;5006016;28;20260;-68
2021/06/03 04:31:12;;;;;;;2.40;2.20;;;18.60;99.90;;;;;;5002173;28;20202;-68
2021/06/03 04:33:38;;;;;;;2.90;2.70;;;18.60;99.90;;;;;;5007596;28;20178;-69
2021/06/03 04:36:04;;;;;;;3.00;2.43;;;18.70;99.90;;;;;;5007917;28;20264;-68
2021/06/03 04:38:30;;;;;;;3.03;2.50;;;18.70;99.90;;;;;;5007660;28;20717;-68
2021/06/03 04:40:56;;;;;;;3.50;2.23;;;18.70;99.90;;;;;;5005837;28;20433;-68
2021/06/03 04:43:22;;;;;;;5.03;2.30;;;18.70;99.90;;;;;;5010875;28;20662;-68
2021/06/03 04:45:48;;;;;;;3.17;2.50;;;18.70;99.90;;;;;;5009496;28;20873;-68
2021/06/03 04:48:14;;;;;;;2.13;2.03;;;18.70;99.90;;;;;;5002823;28;20202;-68
2021/06/03 04:50:41;;;;;;;2.67;2.47;;;18.70;99.90;;;;;;5009990;28;20788;-68
2021/06/03 04:53:07;;;;;;;3.97;2.53;;;18.60;99.90;;;;;;5009834;28;20428;-68
2021/06/03 04:55:33;;;;;;;3.07;2.30;;;18.60;99.90;;;;;;5012232;28;20561;-68
2021/06/03 04:58:00;;;;;;;4.67;3.10;;;18.70;99.90;;;;;;5008030;28;20433;-68
2021/06/03 05:00:28;;;;;;;2.87;2.67;;;18.70;99.90;;;;;;5009691;28;20547;-68
2021/06/03 05:02:54;;;;;;;2.87;2.67;;;18.80;99.90;;;;;;5009532;28;20475;-68
2021/06/03 05:05:20;;;;;;;2.40;2.20;;;18.90;99.90;;;;;;5009928;28;20623;-68
2021/06/03 05:07:49;;;;;;;3.00;2.43;;;19.00;99.90;;;;;;5011009;28;20603;-69
2021/06/03 05:10:17;;;;;;;4.10;2.57;;;19.10;99.90;;;;;;5007660;28;20770;-68
2021/06/03 05:12:43;;;;;;;2.63;2.10;;;19.20;99.90;;;;;;5009127;28;20430;-68
2021/06/03 05:15:09;;;;;;;2.40;2.20;;;19.30;99.90;;;;;;5010734;28;20466;-68
2021/06/03 05:17:36;;;;;;;4.40;2.90;;;19.50;99.90;;;;;;5001343;28;20947;-68
2021/06/03 05:20:06;;;;;;;3.43;2.63;;;19.60;99.90;;;;;;4998487;28;20459;-68
2021/06/03 05:22:32;;;;;;;3.67;2.57;;;19.70;99.90;;;;;;5010322;28;20443;-68
2021/06/03 05:24:58;;;;;;;3.57;2.80;;;19.80;99.90;;;;;;5010173;28;20437;-70
2021/06/03 05:27:23;;;;;;;3.00;2.60;;;20.00;99.90;;;;;;5005100;28;20594;-68
2021/06/03 05:29:49;;;;;;;4.00;2.30;;;20.10;99.90;;;;;;5009398;28;20196;-69
2021/06/03 05:32:14;;;;;;;3.10;2.80;;;20.30;99.90;;;;;;5009262;28;20181;-69
2021/06/03 05:34:40;;;;;;;2.60;2.40;;;20.40;99.90;;;;;;5005341;28;20185;-68
2021/06/03 05:37:06;;;;;;;2.80;2.43;;;20.60;99.90;;;;;;5003835;28;20584;-69
2021/06/03 05:39:31;;;;;;;2.60;2.40;;;20.70;99.90;;;;;;5008612;28;20185;-69
2021/06/03 05:41:57;;;;;;;3.90;2.63;;;20.80;99.90;;;;;;5008763;28;20604;-69
2021/06/03 05:44:22;;;;;;;3.50;2.43;;;20.90;99.90;;;;;;5008678;28;20178;-69
2021/06/03 05:46:48;;;;;;;2.93;2.47;;;21.00;99.90;;;;;;5007632;28;20220;-69
2021/06/03 05:49:14;;;;;;;5.83;2.60;;;21.10;99.90;;;;;;5009035;28;20220;-69
2021/06/03 05:51:41;;;;;;;5.87;2.90;;;21.20;99.90;;;;;;5002311;28;20173;-69
2021/06/03 05:54:08;;;;;;;2.80;2.60;;;21.20;99.90;;;;;;4999233;28;20312;-69
2021/06/03 05:56:33;;;;;;;2.83;2.63;;;21.30;99.90;;;;;;5000880;28;20461;-69
2021/06/03 05:59:00;;;;;;;2.80;2.43;;;21.30;99.90;;;;;;5004089;28;20846;-69
2021/06/03 06:01:26;;;;;;;3.10;2.60;;;21.40;99.90;;;;;;5007341;28;20678;-69
2021/06/03 06:06:24;;;;;;;5.20;3.33;;;21.50;99.90;;;;;;5009098;28;20992;-70
2021/06/03 06:08:56;;;;;;;2.73;2.40;;;21.60;99.90;;;;;;5007384;28;20213;-70
2021/06/03 06:11:24;;;;;;;4.43;2.80;;;21.70;99.90;;;;;;5007496;28;20526;-70
2021/06/03 06:13:50;;;;;;;2.67;2.47;;;21.80;99.90;;;;;;5010429;28;20419;-70
2021/06/03 06:16:16;;;;;;;4.70;2.40;;;21.90;99.90;;;;;;5005563;28;20478;-70
2021/06/03 06:18:43;;;;;;;2.40;2.20;;;22.00;99.90;;;;;;5008701;28;20436;-69
2021/06/03 06:21:10;;;;;;;4.43;2.67;;;22.10;99.90;;;;;;5008781;28;20917;-70
2021/06/03 06:23:37;;;;;;;3.53;3.23;;;22.10;99.90;;;;;;5010239;28;20498;-70
2021/06/03 06:26:04;;;;;;;3.30;3.00;;;22.20;99.90;;;;;;5005278;28;20468;-70
2021/06/03 06:28:30;;;;;;;3.00;2.70;;;22.20;99.90;;;;;;5006412;28;20547;-70
2021/06/03 06:30:56;;;;;;;3.10;2.90;;;22.10;99.90;;;;;;4998753;28;20528;-70
2021/06/03 06:33:22;;;;;;;3.37;2.90;;;22.10;99.90;;;;;;5010898;28;20216;-70
2021/06/03 06:35:49;;;;;;;5.30;2.83;;;22.10;99.90;;;;;;5005455;28;20178;-70
2021/06/03 06:38:17;;;;;;;3.23;2.93;;;22.10;99.90;;;;;;5005739;28;20499;-70
2021/06/03 06:40:44;;;;;;;3.20;2.90;;;22.10;99.90;;;;;;5003879;28;20440;-70
2021/06/03 06:43:09;;;;;;;4.90;2.80;;;22.10;99.90;;;;;;5010116;28;20436;-70
2021/06/03 06:45:37;;;;;;;3.23;2.83;;;22.00;99.90;;;;;;5008305;28;20439;-70
2021/06/03 06:48:05;;;;;;;3.37;2.23;;;22.00;99.90;;;;;;5008371;28;20193;-70
2021/06/03 06:50:31;;;;;;;3.03;2.83;;;22.10;99.90;;;;;;5008660;28;20515;-70
2021/06/03 06:52:56;;;;;;;4.83;3.40;;;22.10;99.90;;;;;;4991543;28;20517;-70
2021/06/03 06:55:22;;;;;;;2.63;2.43;;;22.20;99.90;;;;;;5008488;28;20173;-70
2021/06/03 06:57:51;;;;;;;2.90;2.63;;;22.20;99.90;;;;;;5008155;28;20235;-70
2021/06/03 07:00:17;;;;;;;4.77;3.30;;;22.20;99.90;;;;;;5007843;28;20252;-70
2021/06/03 07:02:42;;;;;;;5.30;3.33;;;22.40;99.90;;;;;;5008156;28;20932;-70
2021/06/03 07:05:09;;;;;;;3.73;2.90;;;22.50;99.90;;;;;;5008669;28;20174;-70
2021/06/03 07:07:35;;;;;;;2.80;2.60;;;22.60;99.90;;;;;;5007426;28;20262;-70
2021/06/03 07:10:02;;;;;;;3.03;2.83;;;22.90;99.90;;;;;;5004772;28;20432;-70
2021/06/03 07:12:27;;;;;;;2.80;2.60;;;23.10;99.90;;;;;;5007353;28;20439;-70
2021/06/03 07:14:53;;;;;;;4.10;2.30;;;23.40;99.90;;;;;;5006924;28;20428;-70
2021/06/03 07:17:18;;;;;;;2.53;2.10;;;23.70;99.90;;;;;;5007315;28;20173;-69
2021/06/03 07:19:44;;;;;;;2.87;2.63;;;23.90;99.90;;;;;;5003879;28;20274;-69
2021/06/03 07:22:10;;;;;;;5.90;2.63;;;24.10;99.90;;;;;;5008189;28;20181;-69
2021/06/03 07:24:36;;;;;;;2.50;2.30;;;24.50;99.90;;;;;;5008407;28;20267;-69
2021/06/03 07:27:04;;;;;;;3.70;2.90;;;25.00;99.90;;;;;;5002314;28;20547;-69
2021/06/03 07:29:29;;;;;;;2.90;2.10;;;25.80;99.60;;;;;;5007677;28;20460;-69
2021/06/03 07:31:56;;;;;;;6.27;2.53;;;26.40;96.20;;;;;;5007481;28;20442;-70
2021/06/03 07:34:21;;;;;;;2.53;2.20;;;26.80;94.20;;;;;;5002401;28;20503;-70
2021/06/03 07:36:47;;;;;;;7.30;2.10;;;26.90;91.30;;;;;;4996684;28;20469;-70
2021/06/03 07:39:13;;;;;;;2.20;2.00;;;26.80;91.70;;;;;;5001020;28;20302;-70
2021/06/03 07:41:38;;;;;;;2.67;2.47;;;26.80;91.40;;;;;;5007094;28;20220;-70
2021/06/03 07:44:04;;;;;;;3.70;2.67;;;26.50;92.50;;;;;;5007379;28;20181;-70
2021/06/03 07:46:31;;;;;;;4.50;3.23;;;26.40;91.70;;;;;;5003954;28;20185;-70
2021/06/03 07:48:57;;;;;;;6.47;3.03;;;26.30;91.70;;;;;;5006824;28;20471;-70
2021/06/03 07:51:22;;;;;;;2.60;2.40;;;26.20;93.10;;;;;;5000205;28;20929;-70
2021/06/03 07:53:48;;;;;;;1.87;1.77;;;26.20;92.30;;;;;;5008762;28;20181;-70
2021/06/03 07:56:15;;;;;;;3.97;2.50;;;26.30;92.20;;;;;;5007248;28;20209;-70
2021/06/03 07:58:40;;;;;;;3.10;2.43;;;26.50;92.10;;;;;;5005980;28;20251;-70
2021/06/03 08:01:06;;;;;;;4.17;2.90;;;26.70;92.40;;;;;;5008027;28;20697;-70
2021/06/03 08:03:32;;;;;;;4.00;3.20;;;26.70;91.30;;;;;;5008104;28;20371;-70
2021/06/03 08:05:57;;;;;;;3.30;2.47;;;26.70;92.20;;;;;;5007151;28;20260;-70
2021/06/03 08:08:23;;;;;;;3.17;2.73;;;26.80;89.00;;;;;;5005154;28;20221;-70
2021/06/03 08:10:49;;;;;;;2.43;2.27;;;26.70;90.30;;;;;;5007712;28;20647;-70
2021/06/03 08:13:15;;;;;;;2.60;2.40;;;26.60;89.60;;;;;;5008159;28;20536;-70
2021/06/03 08:15:43;;;;;;;4.17;3.17;;;26.60;91.90;;;;;;5008039;28;20192;-70
2021/06/03 08:18:09;;;;;;;3.60;2.93;;;26.60;92.10;;;;;;5011132;28;20643;-70
2021/06/03 08:20:43;;;;;;;3.00;2.80;;;26.30;92.90;;;;;;5007835;28;20431;-70
2021/06/03 08:23:12;;;;;;;2.47;2.37;;;26.20;93.50;;;;;;5012874;28;20187;-70
2021/06/03 08:25:38;;;;;;;2.30;1.87;;;26.10;92.70;;;;;;5010827;28;20440;-70
2021/06/03 08:28:04;;;;;;;3.83;3.30;;;26.00;91.50;;;;;;4998188;28;20969;-70
2021/06/03 08:30:31;;;;;;;4.67;2.93;;;25.70;93.70;;;;;;5001405;28;20532;-69
2021/06/03 08:32:57;;;;;;;3.10;2.73;;;25.50;93.90;;;;;;5001875;28;20794;-69
2021/06/03 08:35:24;;;;;;;3.10;2.90;;;25.40;95.00;;;;;;5001241;28;20498;-70
2021/06/03 08:37:54;;;;;;;4.03;2.80;;;25.30;95.60;;;;;;5004195;28;20213;-70
2021/06/03 08:40:29;;;;;;;2.33;1.90;;;25.00;95.80;;;;;;5005573;28;20444;-70
2021/06/03 08:42:56;;;;;;;2.70;2.50;;;24.90;96.10;;;;;;5009401;28;20442;-70
2021/06/03 08:45:26;;;;;;;2.80;2.33;;;24.50;97.10;;;;;;5011486;28;20432;-70
2021/06/03 08:47:53;;;;;;;5.00;2.93;;;24.30;97.90;;;;;;5010318;28;20452;-70
2021/06/03 08:50:20;;;;;;;3.40;2.73;;;24.10;99.10;;;;;;5009453;28;20433;-70
2021/06/03 08:52:46;;;;;;;3.73;3.17;;;23.90;99.80;;;;;;5010726;28;20948;-70
2021/06/03 08:56:14;;;;;;;2.80;2.60;;;23.80;99.90;;;;;;5010958;28;20424;-70
2021/06/03 08:58:09;;;;;;;4.93;2.47;;;23.70;99.90;;;;;;5004086;28;20605;-70
2021/06/03 09:00:37;;;;;;;2.90;2.57;;;23.60;99.90;;;;;;5010104;28;20521;-70
2021/06/03 09:03:03;;;;;;;2.97;2.47;;;23.60;99.90;;;;;;5010029;28;20862;-69
2021/06/03 09:05:32;;;;;;;3.53;3.23;;;23.60;99.90;;;;;;5007992;28;20444;-70
2021/06/03 09:08:14;;;;;;;3.40;3.10;;;23.50;99.90;;;;;;5007730;28;20870;-70
2021/06/03 09:10:40;;;;;;;5.40;3.93;;;23.60;99.90;;;;;;5016671;28;20953;-70
2021/06/03 09:13:05;;;;;;;3.00;2.63;;;23.60;99.90;;;;;;5009902;28;20416;-70
2021/06/03 09:15:31;;;;;;;3.13;2.83;;;23.80;99.90;;;;;;5003673;28;20784;-70
2021/06/03 09:17:56;;;;;;;3.90;3.50;;;23.80;99.90;;;;;;5002861;28;20196;-70
2021/06/03 09:20:23;;;;;;;3.47;2.87;;;23.90;99.90;;;;;;5009763;28;20185;-70
2021/06/03 09:22:48;;;;;;;3.60;2.80;;;24.00;99.90;;;;;;5013353;28;20177;-70
2021/06/03 09:25:41;;;;;;;2.87;2.60;;;24.20;99.90;;;;;;5008356;28;20436;-69
2021/06/03 09:28:20;;;;;;;3.90;2.83;;;24.40;99.90;;;;;;5006577;28;20284;-69
2021/06/03 09:31:02;;;;;;;4.20;2.57;;;24.70;99.90;;;;;;4999332;28;20769;-69
2021/06/03 09:33:46;;;;;;;3.50;2.80;;;25.10;99.90;;;;;;5004407;28;21071;-70
2021/06/03 09:36:18;;;;;;;4.13;3.40;;;25.90;99.50;;;;;;5007550;28;20450;-70
2021/06/03 09:38:55;;;;;;;3.60;3.30;;;26.70;97.20;;;;;;5008644;28;20499;-70
2021/06/03 09:41:21;;;;;;;2.93;2.73;;;27.10;95.40;;;;;;5008902;28;20824;-70
2021/06/03 09:43:47;;;;;;;3.40;3.20;;;27.30;95.30;;;;;;5007766;28;20433;-70
2021/06/03 09:46:16;;;;;;;4.63;3.10;;;27.50;93.80;;;;;;5008145;28;20505;-70
2021/06/03 09:48:45;;;;;;;3.53;2.97;;;27.30;93.60;;;;;;5010932;28;20201;-70
2021/06/03 09:51:25;;;;;;;1.97;1.87;;;27.20;92.10;;;;;;5010796;28;20996;-70
2021/06/03 09:53:57;;;;;;;2.83;2.63;;;27.20;91.50;;;;;;5008990;28;20424;-70
2021/06/03 09:56:47;;;;;;;2.77;2.27;;;26.80;93.10;;;;;;5005740;28;20420;-69
2021/06/03 09:59:30;;;;;;;3.70;2.67;;;26.80;92.80;;;;;;5024074;28;20448;-70
2021/06/03 10:02:08;;;;;;;5.57;2.97;;;26.80;93.80;;;;;;5008904;28;21032;-70
2021/06/03 10:04:52;;;;;;;4.67;3.30;;;26.70;91.60;;;;;;5008561;28;20585;-70
2021/06/03 10:07:21;;;;;;;3.40;3.13;;;26.90;93.70;;;;;;5007523;28;20599;-70
2021/06/03 10:09:56;;;;;;;5.93;3.30;;;27.30;92.00;;;;;;5008896;28;20933;-70
2021/06/03 10:12:28;;;;;;;2.93;2.37;;;27.70;92.90;;;;;;5025720;28;20434;-70
2021/06/03 10:14:58;;;;;;;3.27;2.80;;;27.70;86.80;;;;;;5010232;28;20428;-70
2021/06/03 10:17:31;;;;;;;2.40;2.20;;;28.00;89.20;;;;;;5006207;28;20427;-70
2021/06/03 10:19:59;;;;;;;2.63;2.43;;;28.20;86.30;;;;;;5006943;28;20472;-70
2021/06/03 10:22:25;;;;;;;5.10;3.60;;;28.30;88.40;;;;;;5007928;28;20474;-70
2021/06/03 10:25:04;;;;;;;2.47;2.27;;;28.30;89.30;;;;;;5007110;28;20937;-70
2021/06/03 10:27:39;;;;;;;3.07;2.60;;;28.30;88.00;;;;;;5006905;28;20170;-70
2021/06/03 10:30:12;;;;;;;2.93;2.70;;;28.20;82.10;;;;;;5009101;28;20438;-70
2021/06/03 10:32:38;;;;;;;4.20;3.80;;;28.20;84.50;;;;;;5008670;28;20434;-70
2021/06/03 10:35:06;;;;;;;3.30;3.00;;;28.10;87.90;;;;;;5003243;28;20432;-70
2021/06/03 10:37:34;;;;;;;2.50;2.20;;;27.90;85.10;;;;;;5002160;28;20463;-70
2021/06/03 10:40:00;;;;;;;3.43;3.07;;;27.90;86.70;;;;;;4998512;28;20424;-70
2021/06/03 10:42:26;;;;;;;4.30;3.90;;;27.70;89.50;;;;;;5009236;28;20723;-70
2021/06/03 10:44:52;;;;;;;4.20;3.17;;;27.70;90.60;;;;;;5006290;28;20448;-70
2021/06/03 10:47:19;;;;;;;3.60;3.30;;;27.60;90.00;;;;;;5006796;28;20455;-70
2021/06/03 10:49:46;;;;;;;2.80;2.30;;;27.50;86.80;;;;;;5008895;28;20828;-70
2021/06/03 10:52:14;;;;;;;7.20;3.27;;;27.50;89.50;;;;;;5007718;28;20467;-70
2021/06/03 10:54:45;;;;;;;4.00;2.60;;;27.50;89.30;;;;;;5006974;28;20888;-70
2021/06/03 10:57:13;;;;;;;2.43;2.23;;;27.40;85.30;;;;;;5002832;28;20952;-70
2021/06/03 10:59:40;;;;;;;2.70;1.83;;;27.20;88.40;;;;;;5003497;28;21007;-70
2021/06/03 11:02:07;;;;;;;2.83;2.17;;;27.00;87.10;;;;;;5004935;28;20921;-70
2021/06/03 11:04:35;;;;;;;2.80;2.60;;;26.80;86.10;;;;;;4998424;28;20519;-70
2021/06/03 11:07:01;;;;;;;2.10;1.90;;;26.60;88.40;;;;;;4997225;28;20433;-70
2021/06/03 11:09:35;;;;;;;3.53;2.57;;;26.50;86.70;;;;;;5009072;28;20467;-70
2021/06/03 11:12:17;;;;;;;2.33;2.13;;;26.40;89.60;;;;;;5009644;28;20516;-70
2021/06/03 11:15:04;;;;;;;2.30;2.00;;;26.40;90.30;;;;;;5009476;28;20422;-70
2021/06/03 11:17:53;;;;;;;2.90;2.60;;;26.30;91.20;;;;;;5008958;28;20466;-70
2021/06/03 11:20:46;;;;;;;4.33;3.80;;;26.20;91.70;;;;;;5008180;28;20537;-70
2021/06/03 11:23:34;;;;;;;5.17;2.20;;;26.10;92.50;;;;;;4995072;28;20443;-70
2021/06/03 11:26:01;;;;;;;2.53;2.33;;;26.00;91.70;;;;;;5002840;28;20788;-70
2021/06/03 11:28:26;;;;;;;3.30;2.63;;;26.00;91.50;;;;;;5006229;28;20566;-70
2021/06/03 11:30:55;;;;;;;3.40;2.67;;;26.00;93.50;;;;;;5003105;28;20428;-70
2021/06/03 11:33:21;;;;;;;2.37;2.17;;;26.10;90.20;;;;;;5006283;28;20188;-70
2021/06/03 11:35:47;;;;;;;2.70;2.50;;;26.10;91.50;;;;;;5004043;28;20519;-70
2021/06/03 11:38:39;;;;;;;2.20;2.00;;;26.20;92.20;;;;;;5007613;28;20563;-70
2021/06/03 11:41:16;;;;;;;2.30;2.10;;;26.20;92.20;;;;;;5000736;28;20533;-70
2021/06/03 11:44:09;;;;;;;3.57;3.07;;;26.20;91.80;;;;;;5006945;28;20502;-70
2021/06/03 11:46:50;;;;;;;2.37;2.20;;;26.20;92.70;;;;;;5006632;28;20858;-70
2021/06/03 11:49:35;;;;;;;3.13;2.00;;;26.20;93.20;;;;;;5014116;28;20459;-70
2021/06/03 11:52:11;;;;;;;3.47;2.87;;;26.30;92.60;;;;;;5000859;28;20523;-70
2021/06/03 11:54:59;;;;;;;2.10;1.90;;;26.30;92.60;;;;;;5005013;28;20439;-70
2021/06/03 11:57:28;;;;;;;3.70;2.50;;;26.30;90.80;;;;;;5021778;28;20424;-70
2021/06/03 12:00:10;;;;;;;2.27;2.10;;;26.30;92.10;;;;;;5006967;28;20459;-70
2021/06/03 12:02:44;;;;;;;2.90;2.60;;;26.20;92.00;;;;;;5004215;28;20439;-70
2021/06/03 12:05:13;;;;;;;2.93;2.10;;;26.20;92.90;;;;;;5004820;28;20439;-70
2021/06/03 12:07:45;;;;;;;1.70;1.50;;;26.20;93.30;;;;;;5007307;28;20431;-70
2021/06/03 12:10:16;;;;;;;4.57;2.53;;;26.40;91.50;;;;;;4996009;28;20420;-70
2021/06/03 12:12:43;;;;;;;3.40;2.90;;;26.60;91.50;;;;;;5006861;28;20432;-70
2021/06/03 12:15:19;;;;;;;5.83;5.23;;;26.80;90.90;;;;;;5005624;28;20925;-70
2021/06/03 12:17:46;;;;;;;2.33;2.10;;;26.80;91.80;;;;;;5000095;28;20424;-70
2021/06/03 12:20:14;;;;;;;1.80;1.70;;;26.90;88.50;;;;;;5007726;28;20432;-70
2021/06/03 12:22:40;;;;;;;2.67;2.47;;;26.90;90.70;;;;;;5005518;28;20534;-70
2021/06/03 12:25:06;;;;;;;3.50;3.23;;;26.90;91.60;;;;;;4999565;28;20528;-70
2021/06/03 12:27:40;;;;;;;3.30;3.10;;;26.70;92.40;;;;;;5003644;28;20181;-70
2021/06/03 12:30:23;;;;;;;3.70;3.10;;;26.60;92.90;;;;;;5004441;28;20800;-70
2021/06/03 12:33:14;;;;;;;3.93;1.90;;;26.50;92.40;;;;;;5003074;28;21007;-70
2021/06/03 12:36:09;;;;;;;3.00;1.60;;;26.50;84.60;;;;;;5005942;28;20459;-71
2021/06/03 12:38:39;;;;;;;2.67;2.00;;;26.60;87.90;;;;;;5001755;28;20503;-70
2021/06/03 12:41:23;;;;;;;3.23;2.50;;;26.70;86.90;;;;;;5004893;28;20420;-70
2021/06/03 12:43:54;;;;;;;1.83;1.57;;;26.90;86.20;;;;;;5000254;28;20428;-70
2021/06/03 12:46:37;;;;;;;3.30;2.37;;;26.90;78.90;;;;;;5006826;28;20435;-69
2021/06/03 12:49:13;;;;;;;2.77;2.43;;;26.90;84.50;;;;;;5008083;28;20456;-69
2021/06/03 12:51:47;;;;;;;3.10;2.73;;;26.80;84.40;;;;;;5001635;28;20478;-70
2021/06/03 12:54:13;;;;;;;2.90;2.70;;;26.80;86.40;;;;;;4997615;28;20463;-70
2021/06/03 12:56:39;;;;;;;4.83;3.13;;;26.60;91.20;;;;;;5002619;28;20428;-69
2021/06/03 12:59:21;;;;;;;3.17;2.90;;;26.40;92.30;;;;;;5005558;28;20969;-69